gotovim-doma.ru alexa rank chart, gotovim-doma.ru alexa rank daily changes

gotovim-doma.ru alexa rank chart, gotovim-doma.ru alexa rank daily changes

gotovim-doma.ru
Actual rank:
23 484

RANK HISTORY

Date Rank Diff
2018/05/21 23 484 -16 377
2018/05/20 39 861 +10 447
2018/05/19 29 414 -3 423
2018/05/18 32 837 -9 406
2018/05/17 42 243 +5 041
2018/05/16 37 202 +17 318
2018/05/15 19 884 -5 185
2018/05/14 25 069 -32
2018/05/13 25 101 -2 024
2018/05/12 27 125 -4 192
2018/05/11 31 317 +2 625
2018/05/10 28 692 -10 513
2018/05/09 39 205 +10 114
2018/05/08 29 091 +6 141
2018/05/07 22 950 -5 493
2018/05/06 28 443 -5 482
2018/05/05 33 925 +107
2018/05/04 33 818 +5 953
2018/05/03 27 865 +4 082
2018/05/02 23 783 -8 265
2018/05/01 32 048 -2 036
2018/04/30 34 084 -3 435
2018/04/29 37 519 +2 900
2018/04/28 34 619 +12 156
2018/04/27 22 463 -6 428
2018/04/26 28 891 -7 115
2018/04/25 36 006 +12 206
2018/04/24 23 800 +1 337
2018/04/23 22 463 -2 979
2018/04/22 25 442 -16 254
2018/04/21 41 696 +6 853
2018/04/20 34 843 +5 086
2018/04/19 29 757 -9 622
2018/04/18 39 379 +20 100
2018/04/17 19 279 -5 721
2018/04/16 25 000 -5 416
2018/04/15 30 416 -2 162
2018/04/14 32 578 +3 115
2018/04/13 29 463 +7 948
2018/04/12 21 515 -13 062
2018/04/11 34 577 +6 910
2018/04/10 27 667 +17 610
2018/04/09 10 057 -2 206
2018/04/08 12 263 -5 702
2018/04/07 17 965 -7 847
2018/04/06 25 812 +2 797
2018/04/05 23 015 -775
2018/04/04 23 790 +3 698
2018/04/03 20 092 +2 284
2018/04/02 17 808 +1 669
2018/04/01 16 139 -10 335
2018/03/31 26 474 +2 382
2018/03/30 24 092 -141
2018/03/29 24 233 -4 890
2018/03/28 29 123 +6 812
2018/03/27 22 311 +4 176
2018/03/26 18 135 -6 881
2018/03/25 25 016 -119
2018/03/24 25 135 -565
2018/03/23 25 700 +241
2018/03/22 25 459

WIDGET FOR YOUR SITE

DOMAINS WITH THE NEAREST RANK

Domain Rank
spacemov.is 23 479
sabda.org 23 480
wvtu.net 23 481
erosnow.com 23 482
milaulas.com 23 483
gotovim-doma.ru 23 484
songkeybpm.com 23 485
ctfs.com 23 486
ehu.es 23 487
trovit.com.mx 23 488
irinn.ir 23 489

DOMAINS WITH THE NEAREST RANK BY TLD .ru

Domain Rank
xcraft.ru 23 430
borda.ru 23 441
uralairlines.ru 23 444
radiovesti.ru 23 445
patriot-su-rf.ru 23 450
gotovim-doma.ru 23 484
paymaster.ru 23 495
liveexpert.ru 23 570
tele.ru 23 603
hr-portal.ru 23 613
sql.ru 23 622